createdAt,value
2022-08-12T00:00:52.269Z,15.17
2022-08-12T00:03:41.388Z,15.18
2022-08-12T00:06:27.823Z,15.08
2022-08-12T00:09:13.040Z,14.99
2022-08-12T00:11:58.655Z,14.91
2022-08-12T00:14:43.897Z,14.99
2022-08-12T00:17:30.475Z,15.09
2022-08-12T00:20:15.709Z,15.12
2022-08-12T00:23:02.459Z,14.99
2022-08-12T00:26:21.298Z,14.91
2022-08-12T00:29:09.482Z,15.02
2022-08-12T00:31:54.769Z,15.02
2022-08-12T00:34:40.005Z,14.92
2022-08-12T00:37:25.143Z,14.79
2022-08-12T00:40:13.973Z,14.71
2022-08-12T00:42:42.272Z,14.69
2022-08-12T00:45:10.347Z,14.63
2022-08-12T00:47:38.371Z,14.60
2022-08-12T00:50:06.822Z,14.56
2022-08-12T00:52:35.573Z,14.55
2022-08-12T00:55:04.484Z,14.49
2022-08-12T00:57:37.137Z,14.50
2022-08-12T01:00:14.657Z,14.55
2022-08-12T01:02:46.335Z,14.57
2022-08-12T01:05:37.118Z,14.56
2022-08-12T01:08:23.718Z,14.59
2022-08-12T01:11:09.390Z,14.73
2022-08-12T01:13:41.607Z,14.67
2022-08-12T01:16:09.562Z,14.46
2022-08-12T01:18:38.821Z,14.39
2022-08-12T01:21:34.270Z,14.35
2022-08-12T01:24:28.113Z,14.43
2022-08-12T01:26:58.369Z,14.65
2022-08-12T01:29:29.979Z,14.55
2022-08-12T01:32:05.368Z,14.31
2022-08-12T01:34:37.575Z,14.26
2022-08-12T01:37:07.609Z,14.23
2022-08-12T01:40:36.149Z,14.22
2022-08-12T01:42:34.090Z,14.18
2022-08-12T01:45:02.974Z,14.05
2022-08-12T01:47:49.654Z,14.01
2022-08-12T01:50:16.763Z,13.92
2022-08-12T01:52:59.854Z,14.08
2022-08-12T01:55:34.548Z,13.91
2022-08-12T01:58:18.154Z,13.96
2022-08-12T02:00:59.020Z,13.90
2022-08-12T02:04:16.855Z,13.85
2022-08-12T02:07:11.258Z,13.84
2022-08-12T02:10:50.591Z,13.77
2022-08-12T02:13:14.181Z,13.75
2022-08-12T02:16:08.969Z,13.75
2022-08-12T02:19:22.594Z,13.73
2022-08-12T02:22:06.421Z,13.73
2022-08-12T02:24:34.651Z,13.86
2022-08-12T02:27:04.465Z,13.95
2022-08-12T02:29:31.475Z,13.95
2022-08-12T02:31:59.324Z,14.01
2022-08-12T02:34:26.232Z,13.91
2022-08-12T02:36:57.603Z,13.79
2022-08-12T02:39:33.675Z,13.65
2022-08-12T02:42:04.290Z,13.58
2022-08-12T02:44:37.569Z,13.50
2022-08-12T02:47:07.241Z,13.54
2022-08-12T02:49:53.047Z,13.48
2022-08-12T02:52:20.854Z,13.47
2022-08-12T02:54:51.357Z,13.46
2022-08-12T02:57:20.700Z,13.41
2022-08-12T02:59:49.670Z,13.43
2022-08-12T03:02:20.105Z,13.35
2022-08-12T03:04:54.094Z,13.36
2022-08-12T03:07:20.955Z,13.51
2022-08-12T03:10:16.129Z,13.57
2022-08-12T03:12:49.504Z,13.63
2022-08-12T03:15:23.947Z,13.65
2022-08-12T03:18:27.668Z,13.60
2022-08-12T03:21:00.310Z,13.67
2022-08-12T03:23:31.087Z,13.49
2022-08-12T03:26:03.386Z,13.28
2022-08-12T03:28:51.138Z,13.21
2022-08-12T03:31:37.253Z,13.12
2022-08-12T03:34:10.197Z,13.13
2022-08-12T03:36:39.514Z,13.15
2022-08-12T03:39:18.098Z,13.17
2022-08-12T03:41:59.316Z,13.16
2022-08-12T03:44:53.626Z,13.09
2022-08-12T03:47:58.228Z,13.24
2022-08-12T03:50:44.448Z,13.31
2022-08-12T03:53:30.239Z,13.34
2022-08-12T03:56:15.403Z,13.18
2022-08-12T03:59:00.656Z,13.09
2022-08-12T04:01:27.711Z,13.09
2022-08-12T04:03:55.106Z,13.07
2022-08-12T04:06:34.917Z,13.13
2022-08-12T04:09:15.599Z,13.17
2022-08-12T04:12:04.417Z,13.27
2022-08-12T04:14:32.565Z,13.28
2022-08-12T04:16:59.862Z,13.16
2022-08-12T04:19:27.352Z,13.30
2022-08-12T04:22:02.071Z,13.43
2022-08-12T04:24:34.119Z,13.32
2022-08-12T04:27:00.792Z,13.27
2022-08-12T04:30:21.225Z,13.43
2022-08-12T04:32:14.261Z,13.57
2022-08-12T04:34:41.849Z,13.68
2022-08-12T04:37:08.852Z,13.80
2022-08-12T04:39:38.082Z,13.88
2022-08-12T04:42:05.023Z,14.02
2022-08-12T04:44:32.265Z,14.11
2022-08-12T04:46:58.912Z,14.14
2022-08-12T04:49:27.071Z,14.16
2022-08-12T04:51:59.144Z,14.30
2022-08-12T04:54:27.536Z,14.48
2022-08-12T04:57:04.026Z,14.62
2022-08-12T04:59:43.712Z,14.85
2022-08-12T05:02:20.377Z,14.95
2022-08-12T05:04:51.732Z,15.09
2022-08-12T05:07:24.275Z,15.19
2022-08-12T05:09:58.967Z,15.30
2022-08-12T05:12:28.445Z,15.46
2022-08-12T05:14:55.160Z,15.61
2022-08-12T05:17:21.845Z,15.79
2022-08-12T05:19:54.346Z,15.92
2022-08-12T05:22:24.028Z,16.06
2022-08-12T05:24:51.207Z,16.24
2022-08-12T05:27:17.989Z,16.43
2022-08-12T05:30:05.529Z,16.65
2022-08-12T05:32:36.567Z,16.87
2022-08-12T05:35:06.613Z,17.04
2022-08-12T05:37:34.941Z,17.23
2022-08-12T05:40:10.079Z,17.41
2022-08-12T05:42:38.302Z,17.60
2022-08-12T05:45:06.147Z,17.84
2022-08-12T05:47:40.683Z,18.06
2022-08-12T05:50:20.139Z,18.32
2022-08-12T05:52:47.925Z,18.49
2022-08-12T05:55:15.317Z,18.83
2022-08-12T05:57:42.202Z,19.06
2022-08-12T06:00:09.372Z,19.26
2022-08-12T06:02:36.135Z,19.48
2022-08-12T06:05:02.984Z,19.50
2022-08-12T06:07:59.848Z,19.65
2022-08-12T06:10:17.832Z,19.86
2022-08-12T06:13:06.907Z,19.96
2022-08-12T06:15:39.875Z,20.19
2022-08-12T06:18:14.011Z,20.21
2022-08-12T06:20:43.646Z,20.51
2022-08-12T06:23:11.940Z,20.46
2022-08-12T06:25:38.864Z,20.69
2022-08-12T06:28:17.296Z,20.84
2022-08-12T06:30:57.306Z,22.19
2022-08-12T06:33:59.684Z,24.58
2022-08-12T06:36:21.082Z,24.74
2022-08-12T06:38:49.073Z,26.66
2022-08-12T06:41:34.720Z,26.24
2022-08-12T06:44:06.921Z,28.28
2022-08-12T06:46:36.850Z,29.08
2022-08-12T06:49:04.571Z,29.62
2022-08-12T06:51:32.552Z,28.75
2022-08-12T06:54:01.359Z,29.37
2022-08-12T06:56:59.805Z,29.36
2022-08-12T06:59:15.823Z,28.69
2022-08-12T07:01:50.782Z,28.57
2022-08-12T07:04:36.709Z,29.58
2022-08-12T07:07:07.180Z,28.35
2022-08-12T07:10:06.761Z,28.22
2022-08-12T07:12:22.098Z,27.45
2022-08-12T07:14:51.501Z,27.54
2022-08-12T07:17:18.810Z,26.83
2022-08-12T07:19:48.904Z,26.19
2022-08-12T07:22:16.236Z,25.60
2022-08-12T07:24:43.159Z,25.12
2022-08-12T07:27:10.093Z,25.09
2022-08-12T07:30:03.862Z,24.91
2022-08-12T07:32:24.679Z,24.67
2022-08-12T07:34:56.432Z,24.64
2022-08-12T07:37:23.686Z,24.54
2022-08-12T07:39:59.800Z,24.40
2022-08-12T07:42:28.463Z,24.59
2022-08-12T07:44:56.379Z,24.76
2022-08-12T07:47:24.269Z,25.06
2022-08-12T07:50:04.638Z,25.27
2022-08-12T07:52:38.546Z,25.00
2022-08-12T07:55:06.625Z,25.26
2022-08-12T07:57:34.810Z,25.24
2022-08-12T08:00:05.734Z,25.21
2022-08-12T08:02:33.861Z,25.12
2022-08-12T08:05:00.744Z,25.33
2022-08-12T08:07:30.565Z,25.41
2022-08-12T08:10:00.077Z,25.43
2022-08-12T08:12:46.962Z,25.37
2022-08-12T08:15:15.102Z,25.51
2022-08-12T08:17:56.528Z,25.80
2022-08-12T08:20:28.380Z,25.97
2022-08-12T08:22:59.665Z,25.85
2022-08-12T08:25:38.729Z,25.85
2022-08-12T08:28:11.679Z,26.05
2022-08-12T08:30:44.504Z,25.97
2022-08-12T08:33:23.759Z,26.02
2022-08-12T08:36:02.253Z,26.20
2022-08-12T08:38:32.138Z,26.26
2022-08-12T08:42:15.751Z,26.46
2022-08-12T08:44:12.080Z,26.85
2022-08-12T08:46:40.638Z,27.11
2022-08-12T08:49:08.301Z,27.17
2022-08-12T08:51:35.303Z,27.10
2022-08-12T08:54:02.366Z,27.08
2022-08-12T08:56:30.276Z,26.87
2022-08-12T08:58:57.998Z,26.89
2022-08-12T09:01:37.407Z,27.19
2022-08-12T09:05:08.017Z,27.10
2022-08-12T09:12:55.105Z,27.38
2022-08-12T09:18:11.895Z,27.91
2022-08-12T09:20:42.414Z,27.73
2022-08-12T09:24:01.231Z,27.94
2022-08-12T09:26:04.113Z,28.04
2022-08-12T09:28:38.049Z,28.18
2022-08-12T09:32:03.760Z,28.33
2022-08-12T09:34:27.873Z,28.40
2022-08-12T09:37:00.506Z,28.68
2022-08-12T09:40:06.242Z,28.76
2022-08-12T09:42:43.491Z,28.71
2022-08-12T09:45:24.174Z,28.57
2022-08-12T09:48:10.498Z,28.32
2022-08-12T09:50:55.281Z,28.68
2022-08-12T09:53:36.577Z,28.50
2022-08-12T09:56:57.139Z,28.77
2022-08-12T09:59:01.908Z,29.01
2022-08-12T10:01:34.494Z,29.39
2022-08-12T10:04:11.960Z,29.20
2022-08-12T10:06:55.615Z,29.53
2022-08-12T10:09:28.711Z,29.67
2022-08-12T10:12:33.109Z,29.66
2022-08-12T10:15:04.055Z,29.03
2022-08-12T10:17:33.136Z,29.30
2022-08-12T10:20:01.670Z,29.59
2022-08-12T10:22:39.347Z,29.78
2022-08-12T10:26:35.368Z,29.69
2022-08-12T10:28:36.046Z,29.74
2022-08-12T10:31:05.508Z,29.66
2022-08-12T10:33:55.700Z,29.39
2022-08-12T10:36:21.646Z,29.41
2022-08-12T10:40:01.532Z,29.80
2022-08-12T10:42:13.657Z,30.05
2022-08-12T10:44:40.301Z,30.03
2022-08-12T10:47:26.528Z,29.87
2022-08-12T10:50:06.864Z,29.89
2022-08-12T10:52:47.095Z,29.78
2022-08-12T10:55:15.739Z,29.88
2022-08-12T10:58:15.560Z,29.74
2022-08-12T11:00:35.828Z,30.02
2022-08-12T11:04:27.369Z,30.40
2022-08-12T11:07:09.590Z,30.45
2022-08-12T11:08:47.299Z,30.14
2022-08-12T11:12:08.325Z,30.19
2022-08-12T11:14:09.861Z,30.15
2022-08-12T11:17:34.541Z,30.22
2022-08-12T11:19:45.548Z,30.66
2022-08-12T11:22:13.032Z,30.63
2022-08-12T11:24:41.115Z,30.52
2022-08-12T11:27:17.914Z,30.39
2022-08-12T11:30:01.738Z,30.42
2022-08-12T11:32:31.607Z,30.37
2022-08-12T11:35:06.772Z,30.83
2022-08-12T11:37:57.963Z,30.95
2022-08-12T11:40:22.368Z,31.06
2022-08-12T11:42:50.105Z,30.91
2022-08-12T11:45:19.680Z,30.36
2022-08-12T11:47:46.423Z,30.84
2022-08-12T11:50:19.206Z,30.82
2022-08-12T11:53:02.373Z,31.07
2022-08-12T11:55:29.801Z,31.25
2022-08-12T11:58:19.685Z,31.31
2022-08-12T12:03:44.218Z,30.69
2022-08-12T12:06:17.114Z,30.61
2022-08-12T12:08:50.981Z,30.59
2022-08-12T12:11:19.923Z,30.74
2022-08-12T12:14:07.903Z,30.88
2022-08-12T12:16:39.602Z,30.83
2022-08-12T12:19:08.831Z,30.59
2022-08-12T12:21:46.952Z,30.57
2022-08-12T12:24:21.317Z,30.49
2022-08-12T12:27:00.931Z,30.59
2022-08-12T12:30:17.722Z,30.39
2022-08-12T12:32:18.639Z,30.42
2022-08-12T12:35:17.840Z,30.27
2022-08-12T12:38:05.446Z,30.32
2022-08-12T12:40:19.929Z,30.43
2022-08-12T12:42:57.701Z,30.44
2022-08-12T12:45:28.535Z,30.72
2022-08-12T12:48:01.477Z,30.33
2022-08-12T12:50:45.534Z,30.61
2022-08-12T12:54:06.263Z,30.89
2022-08-12T12:56:15.558Z,30.94
2022-08-12T12:58:43.535Z,30.57
2022-08-12T13:01:26.577Z,30.61
2022-08-12T13:04:01.905Z,30.58
2022-08-12T13:06:31.981Z,30.56
2022-08-12T13:09:02.477Z,30.30
2022-08-12T13:11:40.782Z,30.01
2022-08-12T13:14:28.249Z,29.94
2022-08-12T13:17:02.604Z,29.99
2022-08-12T13:19:46.862Z,29.83
2022-08-12T13:22:21.712Z,29.96
2022-08-12T13:24:55.692Z,29.75
2022-08-12T13:27:41.476Z,29.96
2022-08-12T13:30:15.964Z,29.64
2022-08-12T13:32:56.747Z,29.64
2022-08-12T13:35:33.435Z,29.91
2022-08-12T13:38:14.798Z,30.05
2022-08-12T13:40:53.500Z,30.02
2022-08-12T13:43:40.278Z,29.68
2022-08-12T13:46:12.235Z,29.61
2022-08-12T13:48:44.703Z,29.80
2022-08-12T13:51:12.232Z,29.96
2022-08-12T13:53:58.299Z,30.08
2022-08-12T13:56:34.648Z,30.18
2022-08-12T13:59:05.628Z,29.78
2022-08-12T14:01:35.815Z,30.04
2022-08-12T14:04:11.958Z,29.85
2022-08-12T14:06:44.791Z,29.81
2022-08-12T14:09:18.249Z,29.93
2022-08-12T14:11:58.308Z,29.90
2022-08-12T14:14:31.644Z,29.93
2022-08-12T14:17:02.363Z,29.82
2022-08-12T14:19:37.648Z,29.78
2022-08-12T14:22:06.728Z,29.75
2022-08-12T14:24:40.313Z,29.61
2022-08-12T14:27:10.285Z,29.54
2022-08-12T14:30:05.391Z,29.55
2022-08-12T14:32:34.617Z,29.52
2022-08-12T14:35:03.939Z,29.54
2022-08-12T14:37:56.897Z,29.38
2022-08-12T14:40:27.977Z,29.48
2022-08-12T14:42:57.094Z,29.62
2022-08-12T14:45:37.184Z,29.68
2022-08-12T14:48:12.931Z,29.45
2022-08-12T14:51:02.603Z,29.57
2022-08-12T14:59:57.199Z,29.72
2022-08-12T15:02:17.159Z,29.60
2022-08-12T15:04:45.330Z,29.58
2022-08-12T15:07:43.846Z,29.54
2022-08-12T15:10:04.471Z,29.41
2022-08-12T15:12:33.621Z,29.55
2022-08-12T15:15:00.380Z,29.57
2022-08-12T15:17:47.732Z,29.61
2022-08-12T15:20:32.847Z,29.64
2022-08-12T15:23:18.038Z,29.15
2022-08-12T15:26:02.720Z,29.11
2022-08-12T15:28:32.965Z,29.13
2022-08-12T15:31:00.804Z,29.19
2022-08-12T15:33:44.749Z,29.16
2022-08-12T15:36:14.790Z,29.29
2022-08-12T15:38:46.432Z,29.28
2022-08-12T15:41:14.831Z,29.38
2022-08-12T15:44:15.823Z,29.27
2022-08-12T15:46:32.320Z,29.22
2022-08-12T15:48:59.328Z,28.93
2022-08-12T15:51:59.445Z,29.10
2022-08-12T15:54:34.312Z,29.08
2022-08-12T15:57:08.317Z,28.90
2022-08-12T16:00:03.950Z,28.86
2022-08-12T16:02:26.975Z,28.99
2022-08-12T16:04:54.071Z,29.10
2022-08-12T16:07:30.284Z,29.10
2022-08-12T16:10:05.795Z,29.03
2022-08-12T16:12:54.657Z,28.97
2022-08-12T16:15:29.345Z,29.09
2022-08-12T16:18:15.098Z,28.95
2022-08-12T16:20:47.294Z,29.20
2022-08-12T16:23:36.006Z,29.18
2022-08-12T16:26:14.719Z,28.92
2022-08-12T16:28:47.398Z,28.99
2022-08-12T16:31:22.792Z,29.01
2022-08-12T16:33:56.819Z,28.96
2022-08-12T16:36:29.019Z,29.13
2022-08-12T16:38:55.765Z,29.02
2022-08-12T16:41:23.442Z,28.85
2022-08-12T16:43:50.538Z,28.81
2022-08-12T16:46:32.023Z,28.90
2022-08-12T16:49:09.146Z,28.81
2022-08-12T16:51:46.595Z,28.75
2022-08-12T16:54:16.509Z,28.46
2022-08-12T16:56:50.610Z,28.42
2022-08-12T16:59:21.879Z,28.24
2022-08-12T17:01:49.652Z,28.35
2022-08-12T17:04:17.641Z,28.23
2022-08-12T17:06:47.793Z,28.20
2022-08-12T17:09:17.303Z,28.14
2022-08-12T17:11:49.328Z,28.11
2022-08-12T17:14:17.555Z,28.12
2022-08-12T17:16:52.254Z,28.14
2022-08-12T17:19:20.615Z,28.13
2022-08-12T17:22:09.766Z,27.94
2022-08-12T17:24:43.745Z,28.03
2022-08-12T17:27:16.274Z,27.87
2022-08-12T17:30:02.814Z,27.63
2022-08-12T17:32:33.676Z,27.81
2022-08-12T17:35:19.912Z,27.85
2022-08-12T17:37:48.697Z,27.64
2022-08-12T17:40:34.738Z,27.61
2022-08-12T17:43:51.990Z,27.42
2022-08-12T17:45:53.304Z,27.45
2022-08-12T17:48:21.816Z,27.26
2022-08-12T17:50:50.853Z,27.19
2022-08-12T17:53:19.432Z,27.17
2022-08-12T17:55:52.223Z,27.17
2022-08-12T17:58:37.634Z,27.03
2022-08-12T18:01:05.961Z,26.85
2022-08-12T18:03:58.296Z,26.79
2022-08-12T18:06:28.000Z,26.80
2022-08-12T18:08:58.753Z,26.73
2022-08-12T18:15:08.724Z,26.30
2022-08-12T18:17:39.264Z,26.37
2022-08-12T18:20:15.498Z,26.42
2022-08-12T18:22:47.615Z,26.29
2022-08-12T18:26:13.987Z,26.34
2022-08-12T18:28:30.654Z,26.04
2022-08-12T18:31:03.019Z,25.97
2022-08-12T18:33:44.037Z,25.89
2022-08-12T18:36:14.285Z,25.82
2022-08-12T18:38:53.147Z,25.86
2022-08-12T18:41:33.669Z,25.74
2022-08-12T18:44:10.771Z,25.68
2022-08-12T18:46:54.469Z,25.57
2022-08-12T18:49:38.049Z,25.61
2022-08-12T18:52:11.983Z,25.38
2022-08-12T18:54:54.057Z,25.23
2022-08-12T18:58:05.690Z,25.24
2022-08-12T19:00:22.960Z,25.16
2022-08-12T19:02:53.724Z,25.17
2022-08-12T19:05:52.732Z,24.93
2022-08-12T19:08:12.723Z,24.89
2022-08-12T19:10:42.897Z,24.82
2022-08-12T19:13:37.706Z,24.72
2022-08-12T19:16:11.252Z,24.60
2022-08-12T19:18:40.954Z,24.50
2022-08-12T19:21:16.282Z,24.23
2022-08-12T19:24:04.828Z,24.13
2022-08-12T19:26:36.571Z,23.90
2022-08-12T19:29:07.048Z,23.64
2022-08-12T19:31:58.225Z,23.50
2022-08-12T19:35:32.824Z,23.37
2022-08-12T19:38:02.830Z,23.18
2022-08-12T19:40:32.855Z,23.00
2022-08-12T19:43:20.696Z,23.10
2022-08-12T19:45:56.271Z,23.06
2022-08-12T19:48:27.962Z,23.16
2022-08-12T19:50:57.903Z,23.05
2022-08-12T19:53:25.267Z,22.93
2022-08-12T19:55:56.406Z,22.67
2022-08-12T19:58:32.846Z,22.60
2022-08-12T20:00:59.972Z,22.43
2022-08-12T20:03:40.069Z,22.27
2022-08-12T20:06:13.884Z,22.27
2022-08-12T20:08:47.925Z,22.24
2022-08-12T20:12:11.272Z,22.16
2022-08-12T20:14:11.544Z,22.01
2022-08-12T20:16:52.529Z,21.96
2022-08-12T20:19:52.299Z,21.87
2022-08-12T20:22:23.411Z,21.64
2022-08-12T20:24:55.121Z,21.55
2022-08-12T20:27:53.747Z,21.42
2022-08-12T20:30:14.144Z,21.27
2022-08-12T20:33:01.790Z,21.23
2022-08-12T20:36:06.275Z,21.12
2022-08-12T20:38:27.167Z,21.03
2022-08-12T20:40:55.722Z,21.01
2022-08-12T20:43:23.962Z,20.99
2022-08-12T20:45:57.345Z,20.80
2022-08-12T20:48:28.781Z,20.83
2022-08-12T20:51:04.391Z,20.77
2022-08-12T20:53:57.591Z,20.64
2022-08-12T20:56:30.911Z,20.51
2022-08-12T20:58:59.933Z,20.36
2022-08-12T21:01:46.216Z,20.20
2022-08-12T21:04:35.333Z,20.02
2022-08-12T21:07:09.371Z,19.93
2022-08-12T21:09:48.747Z,19.95
2022-08-12T21:12:27.653Z,19.86
2022-08-12T21:15:23.861Z,19.84
2022-08-12T21:18:11.094Z,19.81
2022-08-12T21:20:52.511Z,19.73
2022-08-12T21:23:21.373Z,19.58
2022-08-12T21:25:49.291Z,19.49
2022-08-12T21:28:20.583Z,19.49
2022-08-12T21:31:11.088Z,19.51
2022-08-12T21:33:58.661Z,19.22
2022-08-12T21:36:34.351Z,19.26
2022-08-12T21:39:20.663Z,19.17
2022-08-12T21:41:53.616Z,19.13
2022-08-12T21:45:44.682Z,19.00
2022-08-12T21:47:21.070Z,18.92
2022-08-12T21:50:06.460Z,18.96
2022-08-12T21:52:42.301Z,18.74
2022-08-12T21:55:17.919Z,18.81
2022-08-12T21:57:53.241Z,18.83
2022-08-12T22:00:33.603Z,18.85
2022-08-12T22:04:03.868Z,18.73
2022-08-12T22:06:20.343Z,18.74
2022-08-12T22:08:59.511Z,18.75
2022-08-12T22:11:40.961Z,18.68
2022-08-12T22:14:10.340Z,18.55
2022-08-12T22:16:50.200Z,18.61
2022-08-12T22:19:21.102Z,18.43
2022-08-12T22:21:54.791Z,18.31
2022-08-12T22:24:27.019Z,18.18
2022-08-12T22:27:32.032Z,18.09
2022-08-12T22:30:16.776Z,18.04
2022-08-12T22:32:51.027Z,18.00
2022-08-12T22:35:56.638Z,17.94
2022-08-12T22:38:23.798Z,17.87
2022-08-12T22:40:53.954Z,17.98
2022-08-12T22:44:01.157Z,18.08
2022-08-12T22:46:52.696Z,18.05
2022-08-12T22:49:48.902Z,17.87
2022-08-12T22:52:14.022Z,17.80
2022-08-12T22:54:46.439Z,17.77
2022-08-12T22:57:53.461Z,17.79
2022-08-12T23:00:23.920Z,17.73
2022-08-12T23:03:03.402Z,17.77
2022-08-12T23:05:56.542Z,17.83
2022-08-12T23:08:29.931Z,17.63
2022-08-12T23:11:00.101Z,17.65
2022-08-12T23:13:45.891Z,17.68
2022-08-12T23:16:28.031Z,17.66
2022-08-12T23:19:09.939Z,17.67
2022-08-12T23:22:05.588Z,17.60
2022-08-12T23:24:36.845Z,17.45
2022-08-12T23:27:24.004Z,17.45
2022-08-12T23:30:19.478Z,17.34
2022-08-12T23:32:54.817Z,17.15
2022-08-12T23:35:45.380Z,17.04
2022-08-12T23:38:30.218Z,17.03
2022-08-12T23:40:58.109Z,17.08
2022-08-12T23:43:25.543Z,17.19
2022-08-12T23:46:00.794Z,17.13
2022-08-12T23:48:31.758Z,16.99
2022-08-12T23:51:01.574Z,16.97
2022-08-12T23:53:32.409Z,16.90
2022-08-12T23:55:59.553Z,16.92
2022-08-12T23:58:28.213Z,17.10
